Aérodrome :
LOGIN :

S'inscrire | Disclaimer

   EN    FR    IT 

 










Légende :    VFR   VFR Marginal   IFR   IFR Intensif   IFR Très Intensif
Visi : 
Plafond : 
>= 8 km
>= 3000ft
5 à 8 km
1000 à 3000 ft
1500m à 5 km
500 à 1000 ft
800 à 1500m
200 à 500 ft
< 800m
< 200 ft
Symboles :   Orages  Brouillard  Fortes neiges  Fortes précipitations  Vent > 20 kt
SIGMETs :   Divers  Orages  Givrage  Turbulence  Onde Orograph.  Cendres Volcan.






- Altitude de l'aérodrome : 22 ft
- Code IATA : LDY


EGAE - Londonderry Eglington

DERNIER METAR :
  • 150750Z 16007KT 080V190 9999 VCSH FEW011 SCT034 BKN049 12/09 Q1000

METARs EXPIRÉS :
  • 150720Z 14004KT 060V210 9999 FEW010 BKN035 12/09 Q1000
  • 150650Z VRB03KT 9999 FEW011 SCT038 12/09 Q1000
  • 150620Z 12005KT 080V160 9999 FEW012 12/09 Q1000
  • 150550Z 13005KT 100V170 9999 FEW012 12/09 Q1000
  • 150520Z 11007KT 060V140 9999 FEW011 11/10 Q1000

TAF TAF EGAE
Valide du 15 à 06h jusqu'au 15 à 15h UTC


150529Z 1506/1515 VRB03KT 9999 FEW012 SCT030
PROB30
TEMPO 1506/1508 7000
BECMG 1508/1511 17010KT
TEMPO 1508/1513 7000 -RADZ BKN012



MET'MAP, la Météo Aéronautique d'un coup d'oeil ! - Copyright ORBIFLY Décembre 2007 - Disclaimer

ORBIFLY MET'MAP TEAM :

Programmation & Développement : Alexandra Zaïnal
Conception & Développement : Baudouin d'Aumeries
Co-Programmation & Développement : Marc-Olivier Méhu
Soutien technique & logistique : Manuel Goepfert

Contact : metmap@orbifly.com




SOURCES & CREDITS :

   NOAA